Time;durP1;ratioP1;P1;durP2;ratioP2;P2;SDS_P1;SDS_P2;PMS_P1;PMS_P2;Temp;Humidity;BMP_temperature;BMP_pressure;BME280_temperature;BME280_humidity;BME280_pressure;Samples;Min_cycle;Max_cycle;Signal;HPM_P1;HPM_P2
2021/04/09 00:00:55;;;;;;;27.65;15.20;;;3.70;97.30;;;;;;5080341;28;20030;-78
2021/04/09 00:03:21;;;;;;;25.10;17.15;;;3.80;97.90;;;;;;5115573;28;20039;-76
2021/04/09 00:05:46;;;;;;;29.42;16.50;;;4.00;97.90;;;;;;5097121;28;20040;-78
2021/04/09 00:08:13;;;;;;;28.30;18.05;;;4.00;98.00;;;;;;5115951;28;20395;-80
2021/04/09 00:10:39;;;;;;;29.25;16.90;;;4.10;98.60;;;;;;5115619;28;20031;-79
2021/04/09 00:13:07;;;;;;;28.27;16.80;;;4.00;98.90;;;;;;5115237;28;20050;-76
2021/04/09 00:15:34;;;;;;;29.08;15.77;;;4.10;98.70;;;;;;5115544;28;20051;-78
2021/04/09 00:17:59;;;;;;;24.27;14.63;;;4.10;98.50;;;;;;5115268;28;20042;-77
2021/04/09 00:20:26;;;;;;;23.55;15.43;;;3.80;99.20;;;;;;5115226;28;20414;-79
2021/04/09 00:22:53;;;;;;;24.58;14.88;;;3.90;99.00;;;;;;5115299;28;20165;-79
2021/04/09 00:25:20;;;;;;;22.77;14.60;;;3.90;99.30;;;;;;5115232;28;20539;-76
2021/04/09 00:27:46;;;;;;;25.75;14.88;;;3.90;99.60;;;;;;5096683;28;20417;-79
2021/04/09 00:30:24;;;;;;;27.02;15.50;;;3.80;99.90;;;;;;5115532;28;20388;-76
2021/04/09 00:32:50;;;;;;;25.02;14.93;;;3.60;99.90;;;;;;5114833;28;20030;-79
2021/04/09 00:35:16;;;;;;;25.02;15.25;;;3.20;99.90;;;;;;5115457;28;20023;-78
2021/04/09 00:37:42;;;;;;;26.25;15.48;;;3.10;99.90;;;;;;5115401;28;20020;-77
2021/04/09 00:40:11;;;;;;;25.35;15.00;;;3.20;99.90;;;;;;5115349;28;20036;-80
2021/04/09 00:42:37;;;;;;;22.85;13.77;;;3.30;99.90;;;;;;5115057;28;20020;-76
2021/04/09 00:45:04;;;;;;;18.65;12.93;;;3.30;99.90;;;;;;5115186;28;20398;-80
2021/04/09 00:47:30;;;;;;;16.60;12.20;;;3.50;99.90;;;;;;5096797;28;20023;-78
2021/04/09 00:49:56;;;;;;;22.50;13.88;;;3.50;99.90;;;;;;5096465;28;20081;-78
2021/04/09 00:52:22;;;;;;;19.13;12.38;;;3.50;99.90;;;;;;5113953;28;20027;-76
2021/04/09 00:54:49;;;;;;;21.40;13.82;;;3.40;99.90;;;;;;5115425;28;20028;-79
2021/04/09 00:57:16;;;;;;;17.92;12.20;;;3.40;99.90;;;;;;5114513;28;20024;-77
2021/04/09 00:59:43;;;;;;;19.88;12.90;;;3.60;99.90;;;;;;5114844;28;20016;-78
2021/04/09 01:02:09;;;;;;;21.55;12.85;;;3.60;99.80;;;;;;5114437;28;20030;-78
2021/04/09 01:04:35;;;;;;;17.15;12.00;;;3.50;99.90;;;;;;5114550;28;20039;-77
2021/04/09 01:07:01;;;;;;;22.67;13.32;;;3.20;99.90;;;;;;5114587;28;20038;-80
2021/04/09 01:09:27;;;;;;;18.38;12.40;;;3.00;99.90;;;;;;5115158;28;20124;-78
2021/04/09 01:11:52;;;;;;;18.52;12.50;;;2.80;99.90;;;;;;5114343;28;20086;-80
2021/04/09 01:14:18;;;;;;;23.75;12.57;;;3.00;99.90;;;;;;5114755;28;20016;-76
2021/04/09 01:17:02;;;;;;;21.15;12.88;;;2.80;99.90;;;;;;5114330;28;20119;-76
2021/04/09 01:19:48;;;;;;;15.82;12.02;;;2.60;99.90;;;;;;5114472;28;20024;-75
2021/04/09 01:22:15;;;;;;;19.50;11.77;;;2.70;99.90;;;;;;5113960;28;20475;-79
2021/04/09 01:25:08;;;;;;;19.60;12.35;;;2.80;99.90;;;;;;5114000;28;20057;-80
2021/04/09 01:27:54;;;;;;;19.10;12.05;;;2.90;99.90;;;;;;5113616;28;20043;-78
2021/04/09 01:30:53;;;;;;;16.98;11.70;;;2.90;99.90;;;;;;5114120;28;20471;-79
2021/04/09 01:33:35;;;;;;;15.80;11.55;;;3.10;99.90;;;;;;5114165;28;20102;-79
2021/04/09 01:36:14;;;;;;;20.05;11.93;;;3.10;99.90;;;;;;5113640;28;20023;-77
2021/04/09 01:38:46;;;;;;;16.77;11.60;;;3.20;99.90;;;;;;5114099;28;20077;-74
2021/04/09 01:41:13;;;;;;;17.23;11.23;;;3.20;99.90;;;;;;5113614;28;20467;-75
2021/04/09 01:43:41;;;;;;;20.73;12.18;;;3.20;99.90;;;;;;5095641;28;20038;-80
2021/04/09 01:46:09;;;;;;;15.48;10.15;;;2.70;99.90;;;;;;5113679;28;20127;-78
2021/04/09 01:48:40;;;;;;;15.43;10.65;;;2.50;99.90;;;;;;5113513;28;20051;-78
2021/04/09 01:51:09;;;;;;;18.00;10.23;;;2.40;99.90;;;;;;5113669;28;20058;-80
2021/04/09 01:53:37;;;;;;;20.08;11.38;;;2.60;99.90;;;;;;5113816;28;20028;-78
2021/04/09 01:56:03;;;;;;;17.40;10.35;;;2.90;99.90;;;;;;5095329;28;20019;-79
2021/04/09 01:58:29;;;;;;;13.90;9.27;;;2.80;99.90;;;;;;5113627;28;20031;-76
2021/04/09 02:00:57;;;;;;;12.13;9.40;;;2.90;99.90;;;;;;5113914;28;20076;-79
2021/04/09 02:03:24;;;;;;;12.00;9.32;;;2.70;99.90;;;;;;5113315;28;20055;-79
2021/04/09 02:05:52;;;;;;;11.95;9.02;;;2.80;99.90;;;;;;5094962;28;20074;-80
2021/04/09 02:08:20;;;;;;;13.00;9.57;;;2.70;99.90;;;;;;5114041;28;20031;-78
2021/04/09 02:10:47;;;;;;;12.30;9.32;;;2.80;99.90;;;;;;5113387;28;20015;-78
2021/04/09 02:13:14;;;;;;;13.25;9.15;;;2.80;99.90;;;;;;5095023;28;20059;-77
2021/04/09 02:15:40;;;;;;;12.38;8.70;;;2.90;99.60;;;;;;5113649;28;20430;-77
2021/04/09 02:18:06;;;;;;;13.88;9.68;;;2.90;99.50;;;;;;5094568;28;20055;-77
2021/04/09 02:20:33;;;;;;;13.77;9.73;;;2.70;99.90;;;;;;5095114;28;20119;-77
2021/04/09 02:22:59;;;;;;;13.20;9.32;;;2.50;99.90;;;;;;5113087;28;20054;-77
2021/04/09 02:25:25;;;;;;;13.65;9.55;;;2.50;99.90;;;;;;5112738;28;20051;-78
2021/04/09 02:27:52;;;;;;;17.20;10.00;;;2.60;99.90;;;;;;5094511;28;20049;-77
2021/04/09 02:30:21;;;;;;;13.35;9.60;;;2.30;99.90;;;;;;5112404;28;20023;-78
2021/04/09 02:32:48;;;;;;;12.77;8.65;;;2.40;99.90;;;;;;5094260;28;20111;-79
2021/04/09 02:35:15;;;;;;;12.40;9.52;;;2.30;99.90;;;;;;5113484;28;20038;-80
2021/04/09 02:37:46;;;;;;;12.95;9.18;;;2.10;99.90;;;;;;5112494;28;20027;-77
2021/04/09 02:40:16;;;;;;;15.93;10.27;;;2.20;99.90;;;;;;5112873;28;20059;-79
2021/04/09 02:42:45;;;;;;;12.48;9.10;;;2.30;99.90;;;;;;5112709;28;20031;-79
2021/04/09 02:45:13;;;;;;;16.48;9.40;;;2.10;99.90;;;;;;5113081;28;20508;-81
2021/04/09 02:47:39;;;;;;;11.40;9.02;;;2.10;99.90;;;;;;5112264;28;20069;-79
2021/04/09 02:50:12;;;;;;;11.35;8.00;;;2.10;99.90;;;;;;5113065;28;20034;-80
2021/04/09 02:53:06;;;;;;;10.63;8.38;;;2.30;99.90;;;;;;5112769;28;20048;-78
2021/04/09 02:55:35;;;;;;;11.73;8.30;;;2.40;99.90;;;;;;5094376;28;20024;-80
2021/04/09 02:58:05;;;;;;;11.00;8.02;;;2.50;99.90;;;;;;5112747;28;20024;-80
2021/04/09 03:00:31;;;;;;;11.43;8.20;;;2.60;99.90;;;;;;5112970;28;20020;-80
2021/04/09 03:03:01;;;;;;;12.98;8.95;;;2.50;99.90;;;;;;5112787;28;20028;-79
2021/04/09 03:05:27;;;;;;;16.10;10.27;;;2.60;99.90;;;;;;5112802;28;20035;-78
2021/04/09 03:07:53;;;;;;;14.20;9.82;;;2.50;99.90;;;;;;5112239;28;20252;-79
2021/04/09 03:10:19;;;;;;;16.52;9.30;;;2.50;99.90;;;;;;5112564;28;20109;-79
2021/04/09 03:12:46;;;;;;;11.30;8.60;;;2.40;99.90;;;;;;5112811;28;20533;-80
2021/04/09 03:15:22;;;;;;;14.35;9.75;;;2.50;99.90;;;;;;5112890;28;20028;-76
2021/04/09 03:17:55;;;;;;;13.27;9.30;;;2.10;99.90;;;;;;5112378;28;20475;-79
2021/04/09 03:20:21;;;;;;;26.17;10.13;;;2.10;99.90;;;;;;5112396;28;20027;-78
2021/04/09 03:22:47;;;;;;;12.30;9.23;;;2.00;99.90;;;;;;5111831;28;20386;-78
2021/04/09 03:25:13;;;;;;;15.98;10.80;;;2.10;99.90;;;;;;5112148;28;20101;-80
2021/04/09 03:27:40;;;;;;;16.15;9.95;;;2.20;99.90;;;;;;5112179;28;20100;-77
2021/04/09 03:30:06;;;;;;;15.40;10.15;;;2.10;99.90;;;;;;5094325;28;20110;-79
2021/04/09 03:32:32;;;;;;;12.35;9.18;;;1.90;99.90;;;;;;5093549;28;20031;-79
2021/04/09 03:34:58;;;;;;;11.65;9.35;;;2.00;99.90;;;;;;5112076;28;20053;-80
2021/04/09 03:37:24;;;;;;;15.00;9.68;;;1.90;99.90;;;;;;5112341;28;20051;-77
2021/04/09 03:39:50;;;;;;;15.18;9.20;;;2.00;99.90;;;;;;5112535;28;20497;-79
2021/04/09 03:42:15;;;;;;;13.25;9.85;;;2.00;99.90;;;;;;5112327;28;20413;-81
2021/04/09 03:44:41;;;;;;;15.10;9.70;;;1.90;99.90;;;;;;5112335;28;20031;-81
2021/04/09 03:47:07;;;;;;;18.15;10.00;;;1.90;99.90;;;;;;5112191;28;20035;-78
2021/04/09 03:49:33;;;;;;;15.75;10.15;;;2.00;99.90;;;;;;5112174;28;20023;-80
2021/04/09 03:52:01;;;;;;;14.52;9.80;;;2.10;99.90;;;;;;5111807;28;20027;-80
2021/04/09 03:54:27;;;;;;;15.75;9.93;;;1.90;99.90;;;;;;5112294;28;20032;-78
2021/04/09 03:56:53;;;;;;;16.13;9.82;;;2.00;99.90;;;;;;5112504;28;20030;-79
2021/04/09 03:59:18;;;;;;;13.20;9.65;;;1.90;99.90;;;;;;5111821;28;20023;-79
2021/04/09 04:01:44;;;;;;;12.00;9.48;;;1.80;99.90;;;;;;5093924;28;20023;-80
2021/04/09 04:04:10;;;;;;;12.80;9.32;;;1.90;99.90;;;;;;5093520;28;20467;-78
2021/04/09 04:06:36;;;;;;;14.18;9.50;;;1.90;99.90;;;;;;5111575;28;20105;-76
2021/04/09 04:09:02;;;;;;;16.58;9.68;;;1.80;99.90;;;;;;5112218;28;20027;-78
2021/04/09 04:11:29;;;;;;;18.40;9.15;;;1.70;99.90;;;;;;5111925;28;20360;-80
2021/04/09 04:13:54;;;;;;;14.32;10.45;;;1.90;99.90;;;;;;5111091;28;20069;-79
2021/04/09 04:16:20;;;;;;;17.00;10.48;;;1.80;99.90;;;;;;5111722;28;20028;-78
2021/04/09 04:18:46;;;;;;;15.52;9.77;;;1.90;99.90;;;;;;5111592;28;20023;-79
2021/04/09 04:21:12;;;;;;;16.25;10.65;;;2.10;99.90;;;;;;5111694;28;20168;-79
2021/04/09 04:23:38;;;;;;;12.38;9.10;;;2.20;99.90;;;;;;5111407;28;20052;-81
2021/04/09 04:26:03;;;;;;;15.30;9.85;;;2.00;99.90;;;;;;5112199;28;20040;-79
2021/04/09 04:28:31;;;;;;;16.95;9.95;;;2.10;99.90;;;;;;5113946;28;20077;-78
2021/04/09 04:30:58;;;;;;;13.88;9.63;;;2.20;99.90;;;;;;5115594;28;20123;-80
2021/04/09 04:33:24;;;;;;;19.63;10.05;;;1.90;99.90;;;;;;5097118;28;20024;-78
2021/04/09 04:35:50;;;;;;;17.05;10.38;;;1.90;99.90;;;;;;5115666;28;20027;-81
2021/04/09 04:38:17;;;;;;;15.65;9.48;;;2.00;99.90;;;;;;5096997;28;20089;-79
2021/04/09 04:40:44;;;;;;;14.63;10.77;;;2.10;99.90;;;;;;5115215;28;20433;-78
2021/04/09 04:43:10;;;;;;;16.75;11.40;;;2.20;99.90;;;;;;5115022;28;20055;-80
2021/04/09 04:45:36;;;;;;;18.52;11.45;;;2.10;99.90;;;;;;5114886;28;20040;-79
2021/04/09 04:48:02;;;;;;;18.77;11.38;;;2.30;99.90;;;;;;5114956;28;20035;-77
2021/04/09 04:50:28;;;;;;;19.75;12.55;;;2.30;99.90;;;;;;5114465;28;20027;-79
2021/04/09 04:52:54;;;;;;;14.82;10.98;;;2.50;99.90;;;;;;5114448;28;20140;-81
2021/04/09 04:55:20;;;;;;;15.20;11.18;;;2.50;99.90;;;;;;5096496;28;20339;-81
2021/04/09 04:57:45;;;;;;;19.38;11.88;;;2.70;99.90;;;;;;5114900;28;20023;-79
2021/04/09 05:00:15;;;;;;;16.48;11.00;;;2.60;99.90;;;;;;5114678;28;20028;-82
2021/04/09 05:02:40;;;;;;;18.17;12.38;;;2.60;99.90;;;;;;5115074;28;20015;-78
2021/04/09 05:05:07;;;;;;;21.02;13.38;;;2.60;99.90;;;;;;5114741;28;20027;-78
2021/04/09 05:07:34;;;;;;;22.52;13.15;;;2.80;99.90;;;;;;5114788;28;20016;-80
2021/04/09 05:09:59;;;;;;;21.73;10.73;;;3.00;99.90;;;;;;5114835;28;20027;-78
2021/04/09 05:12:25;;;;;;;18.55;10.80;;;3.00;99.90;;;;;;5114692;28;20384;-80
2021/04/09 05:14:52;;;;;;;31.70;19.27;;;3.00;99.90;;;;;;5114669;28;20118;-81
2021/04/09 05:17:18;;;;;;;45.53;27.27;;;3.60;99.90;;;;;;5114199;28;20023;-80
2021/04/09 05:19:49;;;;;;;101.97;54.17;;;4.30;99.90;;;;;;5114445;28;20034;-81
2021/04/09 05:22:15;;;;;;;97.22;51.90;;;4.40;99.90;;;;;;5095533;28;20028;-81
2021/04/09 05:24:41;;;;;;;66.03;35.45;;;4.00;99.90;;;;;;5113465;28;20048;-81
2021/04/09 05:27:07;;;;;;;28.38;17.50;;;3.60;99.90;;;;;;5095327;28;20123;-80
2021/04/09 05:29:37;;;;;;;21.92;13.68;;;2.80;99.90;;;;;;5112921;28;20028;-78
2021/04/09 05:32:15;;;;;;;21.90;13.68;;;2.70;99.90;;;;;;5112896;28;20032;-77
2021/04/09 05:34:41;;;;;;;31.42;14.88;;;2.90;99.90;;;;;;5095847;28;20035;-77
2021/04/09 05:37:08;;;;;;;24.33;13.25;;;2.90;99.90;;;;;;5113668;28;20069;-77
2021/04/09 05:39:36;;;;;;;22.80;13.35;;;3.00;99.90;;;;;;5112917;28;20023;-79
2021/04/09 05:42:03;;;;;;;19.73;12.23;;;3.10;99.90;;;;;;5112830;28;20080;-78
2021/04/09 05:44:30;;;;;;;23.92;13.10;;;3.20;99.90;;;;;;5112838;28;20023;-78
2021/04/09 05:46:57;;;;;;;20.50;13.07;;;3.20;99.90;;;;;;5112059;28;20396;-80
2021/04/09 05:49:23;;;;;;;18.42;12.20;;;3.30;99.90;;;;;;5113015;28;20355;-77
2021/04/09 05:51:49;;;;;;;18.30;11.57;;;3.40;99.90;;;;;;5112694;28;20059;-76
2021/04/09 05:54:15;;;;;;;18.13;12.32;;;3.40;99.90;;;;;;5112774;28;20031;-78
2021/04/09 05:56:41;;;;;;;16.35;10.55;;;3.50;99.90;;;;;;5112859;28;20372;-79
2021/04/09 05:59:06;;;;;;;16.30;12.07;;;3.60;99.90;;;;;;5108362;27;20402;-76
2021/04/09 06:01:32;;;;;;;17.08;11.80;;;3.70;99.90;;;;;;5094821;28;20059;-77
2021/04/09 06:03:58;;;;;;;20.80;11.35;;;3.50;99.90;;;;;;5094987;28;20382;-80
2021/04/09 06:06:24;;;;;;;15.10;10.27;;;3.60;99.90;;;;;;5113033;28;20038;-76
2021/04/09 06:08:49;;;;;;;47.30;24.15;;;3.60;99.90;;;;;;5095089;28;20032;-85
2021/04/09 06:11:15;;;;;;;47.50;29.80;;;4.40;99.90;;;;;;5113446;28;20409;-83
2021/04/09 06:13:41;;;;;;;18.58;11.98;;;4.50;99.10;;;;;;5095387;28;20110;-77
2021/04/09 06:16:07;;;;;;;16.15;10.73;;;4.20;98.20;;;;;;5111872;28;20374;-80
2021/04/09 06:18:33;;;;;;;16.65;10.32;;;3.90;98.80;;;;;;5113121;28;20023;-77
2021/04/09 06:20:59;;;;;;;15.05;10.13;;;3.80;98.60;;;;;;5093413;28;20028;-78
2021/04/09 06:23:25;;;;;;;20.33;10.35;;;3.90;98.40;;;;;;5094224;28;20072;-80
2021/04/09 06:25:50;;;;;;;15.10;10.90;;;4.00;98.80;;;;;;5112989;28;20039;-81
2021/04/09 06:28:17;;;;;;;17.63;10.65;;;4.10;98.80;;;;;;5113293;28;20020;-79
2021/04/09 06:30:43;;;;;;;26.48;10.88;;;4.10;98.90;;;;;;5095298;28;20432;-79
2021/04/09 06:33:08;;;;;;;16.42;10.18;;;4.00;99.80;;;;;;5092255;28;20479;-79
2021/04/09 06:35:34;;;;;;;16.65;10.13;;;4.30;99.90;;;;;;5092302;28;20020;-80
2021/04/09 06:38:00;;;;;;;18.42;11.25;;;4.40;99.90;;;;;;5073956;28;20025;-77
2021/04/09 06:40:27;;;;;;;16.98;11.05;;;4.40;99.90;;;;;;5073879;28;20051;-79
2021/04/09 06:42:57;;;;;;;16.45;11.60;;;4.30;99.00;;;;;;5106282;28;20030;-78
2021/04/09 06:45:24;;;;;;;18.95;11.23;;;4.30;98.70;;;;;;5110874;28;20467;-79
2021/04/09 06:47:53;;;;;;;16.10;10.88;;;4.50;98.70;;;;;;5094700;28;20118;-80
2021/04/09 06:50:19;;;;;;;17.45;10.82;;;4.80;97.60;;;;;;5112110;28;20438;-77
2021/04/09 06:52:45;;;;;;;17.05;10.98;;;4.30;98.80;;;;;;5094260;28;20028;-78
2021/04/09 06:55:11;;;;;;;14.45;10.05;;;4.60;98.10;;;;;;5093796;28;20059;-80
2021/04/09 06:57:40;;;;;;;13.82;10.07;;;4.70;96.60;;;;;;5112408;28;20107;-80
2021/04/09 07:03:19;;;;;;;18.73;11.38;;;4.70;95.50;;;;;;5112810;28;20046;-80
2021/04/09 07:05:45;;;;;;;17.20;10.82;;;4.90;94.60;;;;;;5112366;28;20040;-79
2021/04/09 07:08:11;;;;;;;19.83;11.05;;;5.10;94.40;;;;;;5112403;28;20382;-79
2021/04/09 07:10:36;;;;;;;16.95;11.48;;;5.30;93.50;;;;;;5112278;28;20084;-79
2021/04/09 07:13:10;;;;;;;15.38;11.20;;;5.50;92.80;;;;;;5111840;28;20023;-81
2021/04/09 07:15:39;;;;;;;18.80;10.93;;;5.80;92.40;;;;;;5111635;28;20051;-81
2021/04/09 07:18:07;;;;;;;16.23;10.10;;;5.90;90.80;;;;;;5112216;28;20043;-77
2021/04/09 07:20:34;;;;;;;16.17;10.35;;;5.90;89.60;;;;;;5092584;28;20062;-79
2021/04/09 07:23:02;;;;;;;16.85;10.10;;;5.80;88.10;;;;;;5110417;28;20016;-81
2021/04/09 07:25:33;;;;;;;16.95;10.02;;;5.80;88.20;;;;;;5110141;28;20060;-80
2021/04/09 07:28:15;;;;;;;17.17;10.93;;;5.80;87.50;;;;;;5092693;28;20106;-77
2021/04/09 07:30:49;;;;;;;19.58;10.60;;;6.00;86.80;;;;;;5110980;28;20494;-77
2021/04/09 07:33:16;;;;;;;14.18;9.57;;;6.20;84.10;;;;;;5112240;28;20054;-79
2021/04/09 07:35:56;;;;;;;12.68;8.80;;;6.10;84.10;;;;;;5111828;28;20027;-79
2021/04/09 07:38:26;;;;;;;14.32;8.95;;;6.20;79.80;;;;;;5093747;28;20028;-79
2021/04/09 07:41:02;;;;;;;11.30;7.90;;;6.20;76.70;;;;;;5103798;28;20068;-83
2021/04/09 07:43:35;;;;;;;15.10;8.55;;;6.20;76.90;;;;;;5102488;28;20024;-81
2021/04/09 07:46:05;;;;;;;13.07;9.10;;;6.60;77.20;;;;;;5111252;28;20027;-80
2021/04/09 07:48:38;;;;;;;14.93;8.82;;;6.80;76.10;;;;;;5091962;28;20038;-79
2021/04/09 07:51:05;;;;;;;15.10;8.95;;;6.60;74.50;;;;;;5111473;28;20479;-80
2021/04/09 07:53:31;;;;;;;17.25;8.70;;;6.60;73.90;;;;;;5093609;28;20076;-79
2021/04/09 07:56:12;;;;;;;14.77;9.02;;;6.60;75.70;;;;;;5111230;28;20047;-80
2021/04/09 07:58:38;;;;;;;;;;;6.90;73.60;;;;;;5109444;28;20494;-78
2021/04/09 08:01:16;;;;;;;16.13;8.63;;;6.90;72.80;;;;;;5099388;28;19950;-79
2021/04/09 08:03:42;;;;;;;11.52;8.02;;;7.10;72.50;;;;;;5114522;28;20019;-78
2021/04/09 08:06:09;;;;;;;15.90;7.65;;;7.20;71.20;;;;;;5114012;28;20077;-79
2021/04/09 08:08:37;;;;;;;13.93;7.78;;;7.20;69.40;;;;;;5113632;28;20077;-81
2021/04/09 08:11:18;;;;;;;13.40;7.45;;;7.30;67.00;;;;;;5097099;28;20043;-78
2021/04/09 08:13:45;;;;;;;11.85;7.90;;;7.50;66.40;;;;;;5115172;28;20024;-80
2021/04/09 08:16:28;;;;;;;11.45;7.85;;;7.70;65.70;;;;;;5113766;28;20030;-81
2021/04/09 08:19:04;;;;;;;11.18;7.65;;;7.60;66.40;;;;;;5114445;28;20031;-81
2021/04/09 08:21:32;;;;;;;11.35;8.18;;;7.70;66.00;;;;;;5094300;28;20020;-80
2021/04/09 08:23:58;;;;;;;18.08;8.25;;;7.80;70.10;;;;;;5115114;28;20537;-79
2021/04/09 08:26:26;;;;;;;12.10;7.75;;;8.10;69.10;;;;;;5096221;28;20039;-79
2021/04/09 08:28:53;;;;;;;11.32;7.35;;;8.10;67.30;;;;;;5114395;28;20031;-79
2021/04/09 08:31:19;;;;;;;12.90;8.43;;;8.40;65.80;;;;;;5097034;28;20026;-82
2021/04/09 08:33:46;;;;;;;12.10;7.68;;;8.80;68.70;;;;;;5114077;28;20015;-80
2021/04/09 08:36:12;;;;;;;11.25;7.30;;;9.10;64.60;;;;;;5094876;28;20448;-79
2021/04/09 08:38:38;;;;;;;9.65;6.90;;;8.90;63.70;;;;;;5115001;28;20106;-85
2021/04/09 08:41:04;;;;;;;9.82;6.88;;;8.70;62.60;;;;;;5115528;28;20106;-80
2021/04/09 08:43:31;;;;;;;10.98;6.30;;;9.00;62.00;;;;;;5114393;28;20022;-81
2021/04/09 08:45:57;;;;;;;8.00;5.85;;;9.30;60.40;;;;;;5097035;28;20107;-81
2021/04/09 08:48:24;;;;;;;9.15;5.13;;;9.60;57.80;;;;;;5094150;28;20026;-80
2021/04/09 08:50:50;;;;;;;6.65;4.55;;;9.80;55.10;;;;;;5076283;28;20016;-83
2021/04/09 08:53:30;;;;;;;8.48;5.53;;;9.80;55.00;;;;;;5100211;28;20024;-80
2021/04/09 08:55:56;;;;;;;9.73;5.03;;;9.80;54.80;;;;;;5113924;28;20028;-78
2021/04/09 08:58:22;;;;;;;10.77;5.57;;;10.30;55.60;;;;;;5114200;28;20446;-80
2021/04/09 09:00:50;;;;;;;8.38;5.03;;;10.50;56.80;;;;;;5078891;28;20555;-83
2021/04/09 09:03:26;;;;;;;8.10;5.00;;;10.60;54.60;;;;;;5094202;28;20020;-81
2021/04/09 09:06:09;;;;;;;9.63;5.03;;;10.70;52.60;;;;;;5093977;28;20478;-81
2021/04/09 09:08:41;;;;;;;7.15;4.97;;;11.30;52.80;;;;;;5076116;28;20071;-81
2021/04/09 09:11:07;;;;;;;9.32;4.85;;;11.60;51.40;;;;;;5075962;28;20036;-78
2021/04/09 09:13:41;;;;;;;7.75;4.65;;;11.20;50.50;;;;;;5093061;28;20039;-85
2021/04/09 09:16:20;;;;;;;8.55;5.50;;;10.60;52.40;;;;;;5114155;28;20036;-85
2021/04/09 09:18:51;;;;;;;8.07;4.40;;;10.50;51.70;;;;;;5114721;28;20038;-80
2021/04/09 09:21:21;;;;;;;8.45;4.97;;;10.40;51.90;;;;;;5114537;28;20019;-81
2021/04/09 09:24:01;;;;;;;8.75;5.25;;;10.60;52.10;;;;;;5109147;28;20059;-79
2021/04/09 09:26:38;;;;;;;8.77;4.85;;;11.10;52.00;;;;;;5074257;28;20165;-81
2021/04/09 09:29:29;;;;;;;6.53;4.80;;;11.70;50.80;;;;;;5092346;28;20025;-82
2021/04/09 09:32:06;;;;;;;7.28;5.10;;;11.40;49.80;;;;;;5090614;28;20023;-80
2021/04/09 09:34:39;;;;;;;7.28;4.53;;;11.10;48.80;;;;;;5089719;28;20060;-83
2021/04/09 09:37:16;;;;;;;8.43;4.55;;;11.10;48.50;;;;;;5073919;28;20047;-80
2021/04/09 09:39:53;;;;;;;7.45;4.15;;;11.50;48.60;;;;;;5092330;28;20031;-81
2021/04/09 09:42:28;;;;;;;8.27;4.28;;;11.80;49.60;;;;;;5090650;28;20408;-82
2021/04/09 09:45:00;;;;;;;8.90;4.53;;;12.30;49.70;;;;;;5090347;28;20024;-81
2021/04/09 09:47:41;;;;;;;8.30;4.40;;;12.50;49.30;;;;;;5092373;28;20099;-82
2021/04/09 09:50:12;;;;;;;7.25;4.22;;;12.40;48.20;;;;;;5074976;28;20043;-82
2021/04/09 09:53:03;;;;;;;6.50;4.45;;;12.40;47.70;;;;;;5092519;28;20366;-81
2021/04/09 09:55:31;;;;;;;9.40;4.32;;;12.50;46.90;;;;;;5074464;28;20058;-84
2021/04/09 09:58:18;;;;;;;6.35;3.67;;;12.60;46.20;;;;;;5092400;28;20364;-83
2021/04/09 10:00:55;;;;;;;7.60;5.15;;;12.80;46.90;;;;;;5070106;28;20449;-80
2021/04/09 10:03:32;;;;;;;7.85;4.75;;;13.50;45.60;;;;;;5089205;28;20023;-78
2021/04/09 10:05:58;;;;;;;8.55;4.72;;;14.00;48.00;;;;;;5071793;28;20404;-81
2021/04/09 10:08:25;;;;;;;6.90;4.03;;;14.40;49.20;;;;;;5073153;28;20497;-81
2021/04/09 10:10:53;;;;;;;8.15;4.50;;;14.40;44.40;;;;;;5070695;28;20468;-80
2021/04/09 10:13:28;;;;;;;7.20;4.30;;;14.70;47.90;;;;;;5091742;28;20030;-81
2021/04/09 10:16:08;;;;;;;8.05;4.60;;;15.10;47.90;;;;;;5071091;28;20024;-85
2021/04/09 10:18:35;;;;;;;6.57;4.13;;;14.90;43.30;;;;;;5061567;28;20476;-82
2021/04/09 10:21:12;;;;;;;6.85;3.88;;;15.00;43.70;;;;;;5092943;28;20039;-83
2021/04/09 10:23:39;;;;;;;5.47;3.47;;;14.50;46.40;;;;;;5095348;28;20036;-84
2021/04/09 10:26:04;;;;;;;5.60;3.55;;;15.50;44.10;;;;;;5093704;28;20032;-81
2021/04/09 10:28:37;;;;;;;6.80;3.78;;;15.10;42.60;;;;;;5112656;28;20027;-79
2021/04/09 10:31:13;;;;;;;9.45;4.40;;;15.10;44.10;;;;;;5112600;28;20098;-77
2021/04/09 10:33:49;;;;;;;7.90;3.78;;;15.30;42.30;;;;;;5112927;28;20028;-80
2021/04/09 10:36:28;;;;;;;6.50;4.00;;;14.90;41.00;;;;;;5112486;28;20093;-83
2021/04/09 10:39:09;;;;;;;6.93;4.03;;;14.20;42.30;;;;;;5112820;28;20466;-79
2021/04/09 10:41:46;;;;;;;7.90;4.03;;;14.40;46.00;;;;;;5109300;28;20623;-80
2021/04/09 10:44:20;;;;;;;6.07;3.67;;;14.80;44.00;;;;;;5108702;28;20099;-78
2021/04/09 10:46:54;;;;;;;6.03;3.10;;;14.10;42.90;;;;;;5093785;28;20062;-81
2021/04/09 10:49:24;;;;;;;5.68;3.72;;;13.90;44.00;;;;;;5112537;28;20076;-87
2021/04/09 10:51:55;;;;;;;8.93;4.50;;;14.60;43.30;;;;;;5093714;28;20096;-81
2021/04/09 10:54:29;;;;;;;6.72;3.30;;;14.90;42.80;;;;;;5094215;28;20024;-81
2021/04/09 10:56:58;;;;;;;7.80;3.85;;;15.30;44.40;;;;;;5105413;28;20035;-76
2021/04/09 10:59:33;;;;;;;6.18;3.17;;;15.80;45.10;;;;;;5112115;28;20030;-77
2021/04/09 11:02:01;;;;;;;7.18;3.70;;;15.70;43.20;;;;;;5105939;27;20051;-79
2021/04/09 11:04:32;;;;;;;6.20;3.70;;;15.80;44.10;;;;;;5092716;28;20019;-81
2021/04/09 11:07:06;;;;;;;6.53;3.40;;;16.40;43.90;;;;;;5111838;28;20737;-80
2021/04/09 11:09:43;;;;;;;6.40;3.50;;;16.20;42.90;;;;;;5109889;28;20335;-82
2021/04/09 11:12:28;;;;;;;5.93;3.22;;;15.90;41.40;;;;;;5111030;28;20039;-79
2021/04/09 11:15:10;;;;;;;5.03;3.45;;;15.70;40.20;;;;;;5108791;28;20035;-79
2021/04/09 11:17:36;;;;;;;6.53;3.20;;;14.90;39.10;;;;;;5111573;28;20015;-83
2021/04/09 11:20:27;;;;;;;6.22;3.33;;;14.50;40.60;;;;;;5110363;28;20043;-83
2021/04/09 11:23:03;;;;;;;5.97;3.70;;;13.20;40.70;;;;;;5083526;28;20479;-82
2021/04/09 11:25:35;;;;;;;4.90;3.13;;;14.20;42.50;;;;;;5091371;28;20052;-80
2021/04/09 11:28:01;;;;;;;6.47;3.08;;;15.20;38.90;;;;;;5110438;28;20011;-82
2021/04/09 11:30:57;;;;;;;5.88;2.97;;;14.70;38.10;;;;;;5090026;28;20055;-79
2021/04/09 11:33:31;;;;;;;5.50;3.08;;;13.20;40.30;;;;;;5110699;28;20077;-82
2021/04/09 11:36:12;;;;;;;7.60;3.85;;;13.30;40.80;;;;;;5105385;28;20354;-80
2021/04/09 11:38:38;;;;;;;6.18;3.50;;;15.10;42.70;;;;;;5111876;28;20379;-81
2021/04/09 11:41:03;;;;;;;9.38;3.75;;;15.80;41.00;;;;;;5111724;28;20478;-82
2021/04/09 11:43:32;;;;;;;5.22;3.00;;;16.00;40.20;;;;;;5093340;28;20023;-82
2021/04/09 11:45:58;;;;;;;6.25;3.10;;;16.00;38.30;;;;;;5110880;28;20043;-81
2021/04/09 11:48:30;;;;;;;8.23;3.85;;;13.00;38.30;;;;;;5111891;28;20030;-80
2021/04/09 11:51:21;;;;;;;7.47;3.78;;;14.10;41.20;;;;;;5109743;28;20023;-79
2021/04/09 11:54:04;;;;;;;9.65;4.13;;;15.30;40.80;;;;;;5092258;28;20035;-84
2021/04/09 11:56:49;;;;;;;7.00;3.90;;;15.90;40.30;;;;;;5110324;28;20141;-81
2021/04/09 11:59:17;;;;;;;6.25;3.58;;;15.90;39.50;;;;;;5092672;28;20118;-82
2021/04/09 12:01:44;;;;;;;8.23;3.60;;;16.40;40.10;;;;;;5086394;28;20165;-85
2021/04/09 12:04:51;;;;;;;7.75;4.00;;;17.10;41.00;;;;;;5101568;28;20024;-83
2021/04/09 12:07:36;;;;;;;5.75;3.40;;;17.10;38.10;;;;;;5109545;28;20043;-85
2021/04/09 12:10:02;;;;;;;5.63;3.25;;;17.40;39.30;;;;;;5094104;28;20383;-84
2021/04/09 12:12:31;;;;;;;5.68;3.28;;;17.00;39.30;;;;;;5093187;28;20386;-82
2021/04/09 12:15:27;;;;;;;5.65;3.53;;;16.80;39.50;;;;;;5093586;28;20362;-83
2021/04/09 12:17:54;;;;;;;7.03;3.78;;;16.60;37.70;;;;;;5093373;28;20074;-82
2021/04/09 12:20:26;;;;;;;7.97;3.72;;;17.20;38.80;;;;;;5111931;28;20023;-79
2021/04/09 12:22:53;;;;;;;7.72;4.57;;;17.50;38.50;;;;;;5111279;28;20026;-77
2021/04/09 12:25:21;;;;;;;7.10;3.65;;;18.00;38.50;;;;;;5110753;28;20048;-81
2021/04/09 12:27:48;;;;;;;5.57;3.53;;;18.00;38.30;;;;;;5111219;28;20079;-80
2021/04/09 12:30:16;;;;;;;6.75;4.30;;;18.40;38.20;;;;;;5111471;28;20088;-79
2021/04/09 12:32:42;;;;;;;5.80;2.78;;;18.10;36.90;;;;;;5110823;28;20023;-77
2021/04/09 12:35:10;;;;;;;6.72;3.05;;;17.50;37.10;;;;;;5111185;28;20043;-81
2021/04/09 12:37:36;;;;;;;6.50;2.97;;;17.30;36.50;;;;;;5110900;28;20098;-77
2021/04/09 12:40:05;;;;;;;4.78;2.80;;;17.50;37.10;;;;;;5111587;28;20023;-77
2021/04/09 12:42:31;;;;;;;6.15;3.45;;;17.50;36.10;;;;;;5110105;28;20039;-79
2021/04/09 12:44:57;;;;;;;6.60;3.33;;;17.40;36.00;;;;;;5111085;28;20028;-80
2021/04/09 12:47:22;;;;;;;6.95;3.40;;;17.10;36.00;;;;;;5110402;28;20421;-79
2021/04/09 12:49:48;;;;;;;6.60;2.70;;;17.00;35.70;;;;;;5094964;28;20019;-81
2021/04/09 12:52:15;;;;;;;6.38;3.28;;;17.70;36.70;;;;;;5113678;28;20080;-79
2021/04/09 12:54:42;;;;;;;6.20;3.03;;;17.20;35.60;;;;;;5093143;28;20024;-80
2021/04/09 12:57:09;;;;;;;5.28;2.90;;;17.50;35.90;;;;;;5113436;28;20027;-80
2021/04/09 12:59:38;;;;;;;7.10;2.97;;;18.10;36.80;;;;;;5095922;28;20542;-81